Time;durP1;ratioP1;P1;durP2;ratioP2;P2;SDS_P1;SDS_P2;PMS_P1;PMS_P2;Temp;Humidity;BMP_temperature;BMP_pressure;BME280_temperature;BME280_humidity;BME280_pressure;Samples;Min_cycle;Max_cycle;Signal;HPM_P1;HPM_P2
2022/11/14 00:01:55;;;;;;;10.30;4.60;;;;;;;19.49;56.32;100309.28;5054982;28;20225;-65
2022/11/14 00:04:21;;;;;;;10.47;4.20;;;;;;;19.44;56.66;100312.47;5042513;28;20195;-65
2022/11/14 00:06:46;;;;;;;12.43;4.40;;;;;;;19.44;56.56;100306.75;5061328;28;20171;-65
2022/11/14 00:09:12;;;;;;;11.37;4.17;;;;;;;19.49;56.71;100308.44;5052339;28;20163;-65
2022/11/14 00:11:37;;;;;;;10.10;4.60;;;;;;;19.49;56.70;100297.81;5074139;28;20217;-65
2022/11/14 00:14:02;;;;;;;11.60;5.00;;;;;;;19.47;57.15;100303.09;5074125;28;20592;-65
2022/11/14 00:16:28;;;;;;;9.13;4.60;;;;;;;19.49;57.21;100288.38;5073654;28;20208;-65
2022/11/14 00:18:53;;;;;;;13.50;4.90;;;;;;;19.43;57.37;100293.66;5056193;28;20167;-65
2022/11/14 00:21:19;;;;;;;9.77;5.03;;;;;;;19.44;57.46;100295.28;5073952;28;20278;-65
2022/11/14 00:23:44;;;;;;;11.83;4.37;;;;;;;19.43;57.56;100284.22;5074437;28;20171;-65
2022/11/14 00:26:10;;;;;;;9.50;4.10;;;;;;;19.43;57.78;100276.47;5074061;28;20171;-65
2022/11/14 00:28:35;;;;;;;5.60;3.50;;;;;;;19.43;57.70;100282.19;5073815;28;20183;-65
2022/11/14 00:31:00;;;;;;;12.90;4.70;;;;;;;19.42;57.94;100277.66;5055900;28;20195;-65
2022/11/14 00:33:26;;;;;;;7.63;5.00;;;;;;;19.44;57.92;100283.00;5072912;28;20205;-65
2022/11/14 00:35:52;;;;;;;9.00;4.00;;;;;;;19.41;58.04;100284.59;5043457;28;20195;-65
2022/11/14 00:38:18;;;;;;;10.23;4.20;;;;;;;19.41;58.30;100283.81;5036076;28;20242;-65
2022/11/14 00:40:43;;;;;;;6.80;3.97;;;;;;;19.40;58.06;100276.41;5053898;28;20429;-65
2022/11/14 00:43:09;;;;;;;7.80;4.30;;;;;;;19.36;58.52;100278.41;5035726;28;20465;-65
2022/11/14 00:45:34;;;;;;;7.37;3.80;;;;;;;19.33;58.59;100277.16;5066799;28;20629;-65
2022/11/14 00:48:00;;;;;;;9.73;4.50;;;;;;;19.38;58.63;100271.09;5073867;28;20622;-65
2022/11/14 00:50:25;;;;;;;6.90;3.90;;;;;;;19.40;58.63;100270.66;5073099;28;20194;-65
2022/11/14 00:52:50;;;;;;;7.40;4.20;;;;;;;19.32;58.90;100269.75;5073066;28;20223;-65
2022/11/14 00:55:16;;;;;;;6.27;3.47;;;;;;;19.34;59.07;100272.22;5073465;28;20174;-65
2022/11/14 00:57:41;;;;;;;7.17;3.83;;;;;;;19.38;58.75;100270.25;5038976;28;20266;-65
2022/11/14 01:00:08;;;;;;;7.47;4.30;;;;;;;19.33;59.04;100277.16;5072795;28;20680;-65
2022/11/14 01:02:33;;;;;;;6.67;3.37;;;;;;;19.34;59.08;100275.09;5072646;28;20566;-65
2022/11/14 01:04:59;;;;;;;6.73;3.63;;;;;;;19.33;59.13;100271.41;5072297;28;20445;-65
2022/11/14 01:07:24;;;;;;;14.57;4.30;;;;;;;19.34;59.22;100278.78;5072232;28;20629;-65
2022/11/14 01:09:50;;;;;;;7.53;3.77;;;;;;;19.29;59.35;100278.28;5054396;28;20171;-65
2022/11/14 01:12:15;;;;;;;8.30;4.13;;;;;;;19.27;59.31;100272.13;5072055;28;20207;-65
2022/11/14 01:14:41;;;;;;;8.17;4.27;;;;;;;19.28;59.49;100271.75;5038054;28;20259;-65
2022/11/14 01:17:06;;;;;;;9.90;4.10;;;;;;;19.28;59.54;100268.06;5072884;28;20530;-65
2022/11/14 01:19:32;;;;;;;6.73;3.60;;;;;;;19.31;59.40;100273.81;5073023;28;20494;-65
2022/11/14 01:21:57;;;;;;;5.63;3.53;;;;;;;19.28;59.42;100274.63;5072654;28;20163;-65
2022/11/14 01:24:23;;;;;;;8.00;3.83;;;;;;;19.29;59.58;100270.53;5072683;28;20240;-65
2022/11/14 01:26:48;;;;;;;6.33;3.57;;;;;;;19.31;59.42;100268.09;5072547;28;20603;-65
2022/11/14 01:29:14;;;;;;;8.43;3.90;;;;;;;19.31;59.69;100273.81;5038204;28;20183;-65
2022/11/14 01:31:39;;;;;;;7.27;3.93;;;;;;;19.29;59.45;100263.97;5072198;28;20692;-65
2022/11/14 01:34:05;;;;;;;7.93;4.00;;;;;;;19.30;59.71;100252.16;5054653;28;20195;-65
2022/11/14 01:36:30;;;;;;;5.93;3.63;;;;;;;19.26;59.81;100245.53;5054301;28;20168;-65
2022/11/14 01:38:55;;;;;;;6.50;3.60;;;;;;;19.28;59.75;100240.28;5054656;28;20193;-65
2022/11/14 01:41:21;;;;;;;5.63;3.63;;;;;;;19.29;59.69;100236.19;5072284;28;20163;-65
2022/11/14 01:43:46;;;;;;;12.10;3.80;;;;;;;19.31;59.71;100233.75;5071887;28;20167;-65
2022/11/14 01:46:22;;;;;;;6.10;3.60;;;;;;;19.32;59.75;100228.88;5054091;28;20541;-65
2022/11/14 01:48:48;;;;;;;5.40;3.20;;;;;;;19.30;59.62;100226.38;5050921;28;20682;-65
2022/11/14 01:51:35;;;;;;;6.73;3.40;;;;;;;19.34;59.66;100223.56;5071854;28;20478;-65
2022/11/14 01:54:02;;;;;;;6.93;3.77;;;;;;;19.31;59.94;100216.56;5072214;28;20186;-65
2022/11/14 01:56:46;;;;;;;5.90;3.80;;;;;;;19.33;59.71;100210.47;5054272;28;20405;-65
2022/11/14 01:59:14;;;;;;;6.10;3.63;;;;;;;19.30;59.95;100214.09;5053974;28;20420;-65
2022/11/14 02:01:50;;;;;;;6.20;3.40;;;;;;;19.31;59.96;100210.84;5054218;28;20413;-63
2022/11/14 02:04:21;;;;;;;7.83;4.07;;;;;;;19.31;59.93;100216.56;5066914;28;20480;-63
2022/11/14 02:06:47;;;;;;;7.97;4.30;;;;;;;19.33;59.80;100201.88;5037104;28;21198;-63
2022/11/14 02:09:12;;;;;;;8.10;3.57;;;;;;;19.31;59.85;100190.81;5072284;28;20439;-64
2022/11/14 02:11:40;;;;;;;10.33;3.90;;;;;;;19.33;59.75;100182.69;5071176;28;20203;-64
2022/11/14 02:14:05;;;;;;;6.47;3.47;;;;;;;19.30;59.96;100191.19;5069354;28;20643;-63
2022/11/14 02:16:30;;;;;;;4.57;3.17;;;;;;;19.28;59.97;100188.75;5071305;28;20420;-63
2022/11/14 02:18:56;;;;;;;6.93;3.60;;;;;;;19.31;60.05;100185.09;5070810;28;20574;-63
2022/11/14 02:21:21;;;;;;;6.93;3.53;;;;;;;19.28;60.33;100193.63;5071177;28;20159;-63
2022/11/14 02:23:47;;;;;;;6.43;2.90;;;;;;;19.31;59.93;100187.94;5036621;28;20175;-63
2022/11/14 02:26:15;;;;;;;5.23;3.60;;;;;;;19.28;59.96;100183.03;5070863;28;20156;-63
2022/11/14 02:28:41;;;;;;;6.37;3.47;;;;;;;19.29;60.15;100176.06;5036966;28;20550;-63
2022/11/14 02:31:06;;;;;;;5.07;3.67;;;;;;;19.31;60.04;100170.78;5071120;28;20460;-63
2022/11/14 02:33:32;;;;;;;8.07;3.80;;;;;;;19.35;59.99;100174.50;5053209;28;20159;-63
2022/11/14 02:35:57;;;;;;;4.07;2.90;;;;;;;19.29;60.14;100166.66;5071085;28;20187;-63
2022/11/14 02:38:23;;;;;;;8.23;3.73;;;;;;;19.30;60.17;100172.00;5073608;28;20174;-63
2022/11/14 02:40:48;;;;;;;5.77;3.63;;;;;;;19.28;60.19;100171.56;5070938;28;20171;-63
2022/11/14 02:43:14;;;;;;;5.13;2.70;;;;;;;19.27;60.38;100164.16;5053102;28;20183;-62
2022/11/14 02:45:39;;;;;;;7.63;3.60;;;;;;;19.23;60.29;100160.47;5070934;28;20216;-63
2022/11/14 02:48:05;;;;;;;6.83;3.80;;;;;;;19.28;60.24;100171.56;5071031;28;20169;-63
2022/11/14 02:50:30;;;;;;;5.60;3.30;;;;;;;19.29;60.08;100164.63;5052445;28;20169;-63
2022/11/14 02:52:56;;;;;;;4.50;2.83;;;;;;;19.28;60.34;100159.28;5064320;28;20233;-63
2022/11/14 02:55:21;;;;;;;4.70;3.17;;;;;;;19.26;60.56;100158.88;5091748;28;20162;-63
2022/11/14 02:57:46;;;;;;;4.37;2.90;;;;;;;19.27;60.43;100158.44;5095137;28;20209;-63
2022/11/14 03:00:12;;;;;;;9.43;3.53;;;;;;;19.27;60.26;100147.00;5095030;28;20178;-63
2022/11/14 03:02:38;;;;;;;6.80;3.17;;;;;;;19.23;60.50;100146.16;5095402;28;20170;-63
2022/11/14 03:05:04;;;;;;;6.47;3.50;;;;;;;19.27;60.31;100152.72;5076702;28;20205;-62
2022/11/14 03:07:29;;;;;;;12.03;3.20;;;;;;;19.30;60.26;100143.38;5095340;28;20523;-63
2022/11/14 03:09:54;;;;;;;5.90;3.17;;;;;;;19.28;60.21;100148.69;5095155;28;20163;-63
2022/11/14 03:12:20;;;;;;;4.83;3.27;;;;;;;19.24;60.43;100136.34;5094890;28;20190;-63
2022/11/14 03:14:45;;;;;;;5.07;3.33;;;;;;;19.24;60.50;100142.06;5094851;28;20235;-64
2022/11/14 03:17:11;;;;;;;5.37;3.63;;;;;;;19.24;60.62;100146.97;5076719;28;20228;-63
2022/11/14 03:19:36;;;;;;;5.43;2.93;;;;;;;19.24;60.51;100146.97;5076375;28;20174;-64
2022/11/14 03:22:01;;;;;;;7.10;3.40;;;;;;;19.20;60.49;100144.03;5076744;28;20165;-63
2022/11/14 03:24:27;;;;;;;4.43;2.77;;;;;;;19.21;60.61;100145.66;5094822;28;20159;-63
2022/11/14 03:26:52;;;;;;;6.83;3.57;;;;;;;19.17;60.71;100141.94;5094808;28;20174;-63
2022/11/14 03:29:18;;;;;;;5.40;3.13;;;;;;;19.23;60.45;100143.28;5094592;28;20228;-63
2022/11/14 03:31:43;;;;;;;6.80;3.50;;;;;;;19.21;60.66;100151.38;5076199;28;20202;-63
2022/11/14 03:34:09;;;;;;;4.50;2.70;;;;;;;19.21;60.38;100142.81;5094157;28;20169;-63
2022/11/14 03:36:35;;;;;;;7.00;3.10;;;;;;;19.22;60.44;100141.63;5093881;28;20497;-64
2022/11/14 03:39:01;;;;;;;5.73;3.50;;;;;;;19.21;60.52;100144.88;5075367;28;20571;-63
2022/11/14 03:41:26;;;;;;;5.10;3.00;;;;;;;19.17;60.77;100147.66;5075840;28;20210;-63
2022/11/14 03:43:52;;;;;;;5.00;3.30;;;;;;;19.19;60.46;100145.25;5075586;28;20501;-63
2022/11/14 03:46:17;;;;;;;3.83;2.67;;;;;;;19.23;60.60;100140.44;5093573;28;20186;-63
2022/11/14 03:48:42;;;;;;;5.67;3.20;;;;;;;19.21;60.48;100144.88;5092918;28;20247;-63
2022/11/14 03:51:08;;;;;;;5.33;3.07;;;;;;;19.22;60.64;100150.22;5093028;28;20210;-63
2022/11/14 03:53:33;;;;;;;7.13;3.20;;;;;;;19.19;60.55;100150.13;5041274;28;20222;-63
2022/11/14 03:55:59;;;;;;;6.63;3.30;;;;;;;19.19;60.79;100148.09;5072474;28;20618;-64
2022/11/14 03:58:24;;;;;;;5.50;3.50;;;;;;;19.20;60.55;100146.88;5054792;28;20647;-63
2022/11/14 04:00:50;;;;;;;4.47;2.97;;;;;;;19.15;60.71;100144.38;5072805;28;20178;-64
2022/11/14 04:03:15;;;;;;;6.63;3.40;;;;;;;19.17;60.82;100147.66;5072593;28;20167;-64
2022/11/14 04:05:44;;;;;;;5.43;2.70;;;;;;;19.16;60.63;100143.16;5070408;28;20199;-63
2022/11/14 04:08:09;;;;;;;7.40;3.70;;;;;;;19.16;60.77;100140.28;5073401;28;20619;-63
2022/11/14 04:10:36;;;;;;;4.60;3.00;;;;;;;19.15;61.02;100138.66;5073436;28;20488;-63
2022/11/14 04:13:03;;;;;;;4.63;2.67;;;;;;;19.19;60.59;100130.94;5052110;28;20178;-63
2022/11/14 04:15:28;;;;;;;3.83;2.53;;;;;;;19.17;60.79;100126.81;5055333;28;20417;-63
2022/11/14 04:17:53;;;;;;;4.80;2.90;;;;;;;19.15;60.71;100121.47;5055190;28;20421;-63
2022/11/14 04:20:19;;;;;;;5.50;3.40;;;;;;;19.15;60.70;100120.63;5073274;28;20163;-63
2022/11/14 04:22:44;;;;;;;5.60;2.93;;;;;;;19.17;60.84;100115.38;5073299;28;20179;-64
2022/11/14 04:25:10;;;;;;;4.40;2.80;;;;;;;19.17;60.63;100116.19;5073354;28;20228;-63
2022/11/14 04:27:35;;;;;;;4.40;2.93;;;;;;;19.14;60.86;100116.97;5073198;28;20506;-63
2022/11/14 04:30:01;;;;;;;4.00;2.70;;;;;;;19.13;60.76;100118.19;5055374;28;20175;-63
2022/11/14 04:32:26;;;;;;;6.30;2.80;;;;;;;19.17;60.58;100106.78;5072841;28;20566;-63
2022/11/14 04:34:52;;;;;;;7.23;3.07;;;;;;;19.15;60.82;100112.06;5055199;28;20275;-63
2022/11/14 04:37:17;;;;;;;4.53;2.90;;;;;;;19.15;60.78;100112.88;5073140;28;20171;-62
2022/11/14 04:39:43;;;;;;;3.60;2.57;;;;;;;19.14;60.74;100111.25;5043511;28;20172;-63
2022/11/14 04:42:08;;;;;;;6.27;3.33;;;;;;;19.14;60.92;100114.13;5035026;28;20539;-63
2022/11/14 04:44:34;;;;;;;3.57;2.77;;;;;;;19.16;60.80;100119.44;5057129;28;20962;-63
2022/11/14 04:46:59;;;;;;;8.00;3.00;;;;;;;19.18;61.01;100129.28;5072805;28;20155;-63
2022/11/14 04:49:24;;;;;;;5.27;3.50;;;;;;;19.16;60.88;100125.97;5072804;28;20622;-63
2022/11/14 04:51:50;;;;;;;4.20;2.60;;;;;;;19.16;60.68;100128.84;5072921;28;20608;-62
2022/11/14 04:54:15;;;;;;;4.33;2.77;;;;;;;19.17;60.76;100113.31;5073003;28;20168;-63
2022/11/14 04:56:41;;;;;;;5.70;3.00;;;;;;;19.17;60.71;100101.06;5053247;28;20533;-63
2022/11/14 04:59:06;;;;;;;5.93;2.83;;;;;;;19.15;60.72;100089.16;5052655;28;20643;-63
2022/11/14 05:01:32;;;;;;;5.87;3.20;;;;;;;19.15;60.89;100092.03;5051226;28;20167;-63
2022/11/14 05:03:57;;;;;;;3.93;2.70;;;;;;;19.14;60.73;100091.22;5044884;28;20199;-63
2022/11/14 05:06:23;;;;;;;4.83;2.90;;;;;;;19.11;61.11;100094.03;5072348;28;20250;-63
2022/11/14 05:08:48;;;;;;;5.20;2.97;;;;;;;19.15;60.75;100097.75;5054542;28;20167;-64
2022/11/14 05:11:14;;;;;;;5.97;3.00;;;;;;;19.15;60.76;100104.31;5072668;28;20194;-63
2022/11/14 05:13:40;;;;;;;3.90;2.57;;;;;;;19.13;60.97;100091.59;5056240;28;20187;-63
2022/11/14 05:16:05;;;;;;;5.60;2.90;;;;;;;19.14;60.67;100079.78;5034962;28;20425;-63
2022/11/14 05:18:31;;;;;;;5.00;3.13;;;;;;;19.17;60.55;100078.16;5053622;28;20705;-63
2022/11/14 05:20:59;;;;;;;6.60;2.70;;;;;;;19.15;60.77;100074.84;5072032;28;20630;-63
2022/11/14 05:23:25;;;;;;;4.80;2.97;;;;;;;19.14;60.91;100076.06;5071799;28;20518;-63
2022/11/14 05:25:59;;;;;;;4.70;2.97;;;;;;;19.13;60.85;100078.13;5053619;28;20406;-63
2022/11/14 05:28:25;;;;;;;4.60;3.13;;;;;;;19.14;60.82;100087.53;5071631;28;20684;-63
2022/11/14 05:30:50;;;;;;;5.13;2.60;;;;;;;19.15;60.76;100077.72;5070814;28;20525;-63
2022/11/14 05:33:16;;;;;;;3.90;2.80;;;;;;;19.15;60.86;100078.56;5071223;28;20190;-63
2022/11/14 05:35:41;;;;;;;5.00;2.80;;;;;;;19.13;60.70;100072.41;5071329;28;20167;-63
2022/11/14 05:38:07;;;;;;;5.03;2.80;;;;;;;19.14;60.89;100079.78;5071701;28;20170;-63
2022/11/14 05:40:32;;;;;;;4.53;2.70;;;;;;;19.15;60.83;100072.81;5071759;28;20171;-63
2022/11/14 05:42:57;;;;;;;3.80;2.10;;;;;;;19.13;60.97;100069.53;5062116;28;20267;-63
2022/11/14 05:45:23;;;;;;;4.03;2.70;;;;;;;19.14;60.84;100061.75;5062743;28;20183;-63
2022/11/14 05:47:48;;;;;;;4.70;2.50;;;;;;;19.15;61.02;100055.66;5053707;28;20171;-63
2022/11/14 05:50:15;;;;;;;4.23;2.70;;;;;;;19.11;60.80;100059.69;5036769;28;20183;-63
2022/11/14 05:52:40;;;;;;;8.57;2.97;;;;;;;19.13;60.92;100054.41;5073568;28;20219;-64
2022/11/14 05:55:06;;;;;;;3.70;2.40;;;;;;;19.16;60.84;100054.44;5071890;28;20421;-63
2022/11/14 05:57:34;;;;;;;4.70;2.70;;;;;;;19.13;60.75;100049.50;5071361;28;20191;-63
2022/11/14 06:00:00;;;;;;;5.13;2.47;;;;;;;19.16;60.87;100062.22;5053666;28;20420;-64
2022/11/14 06:02:25;;;;;;;4.50;2.77;;;;;;;19.14;60.84;100061.75;5052708;28;20418;-62
2022/11/14 06:04:50;;;;;;;4.50;2.73;;;;;;;19.17;60.75;100061.81;5070331;28;20199;-62
2022/11/14 06:07:16;;;;;;;3.10;2.07;;;;;;;19.14;60.92;100062.59;5070970;28;20171;-62
2022/11/14 06:09:41;;;;;;;4.00;2.63;;;;;;;19.14;61.01;100061.75;5053609;28;20164;-66
2022/11/14 06:12:07;;;;;;;4.77;2.80;;;;;;;19.16;60.80;100065.88;5033633;28;20187;-62
2022/11/14 06:14:32;;;;;;;4.00;2.67;;;;;;;19.17;60.77;100044.63;5055301;28;20183;-63
2022/11/14 06:16:58;;;;;;;4.03;2.50;;;;;;;19.15;60.81;100047.06;5064411;28;20294;-62
2022/11/14 06:19:23;;;;;;;4.00;2.63;;;;;;;19.14;61.01;100041.72;5051243;28;20164;-62
2022/11/14 06:21:49;;;;;;;3.80;2.67;;;;;;;19.14;60.82;100036.84;5045378;28;20179;-62
2022/11/14 06:24:14;;;;;;;3.80;2.70;;;;;;;19.15;60.77;100034.78;5053012;28;20175;-63
2022/11/14 06:26:40;;;;;;;3.67;2.43;;;;;;;19.14;60.92;100028.25;5071475;28;20175;-63
2022/11/14 06:29:06;;;;;;;3.57;2.47;;;;;;;19.16;60.78;100027.88;5071151;28;20174;-63
2022/11/14 06:31:31;;;;;;;5.00;2.50;;;;;;;19.15;60.85;100038.50;5053353;28;20202;-63
2022/11/14 06:33:57;;;;;;;3.70;2.53;;;;;;;19.14;60.92;100039.72;5053146;28;20418;-62
2022/11/14 06:36:22;;;;;;;3.33;2.10;;;;;;;19.15;60.79;100041.34;5053173;28;20248;-63
2022/11/14 06:38:48;;;;;;;4.13;2.70;;;;;;;19.16;60.78;100047.91;5053448;28;20244;-64
2022/11/14 06:41:18;;;;;;;4.00;2.80;;;;;;;19.16;60.78;100048.72;5071123;28;20174;-63
2022/11/14 06:43:45;;;;;;;4.20;2.90;;;;;;;19.17;61.05;100040.97;5036915;28;20174;-64
2022/11/14 06:46:11;;;;;;;3.47;2.33;;;;;;;19.17;60.75;100044.63;5052081;28;20432;-63
2022/11/14 06:48:37;;;;;;;3.13;2.17;;;;;;;19.18;60.77;100045.47;5071262;28;20421;-63
2022/11/14 06:51:03;;;;;;;4.50;2.80;;;;;;;19.18;60.77;100056.91;5070904;28;20445;-63
2022/11/14 06:53:29;;;;;;;4.80;2.77;;;;;;;19.20;60.82;100046.72;5070467;28;20250;-62
2022/11/14 06:56:04;;;;;;;4.77;2.70;;;;;;;19.17;60.72;100049.56;5068464;28;20179;-64
2022/11/14 06:58:31;;;;;;;3.77;2.60;;;;;;;19.18;60.70;100052.03;5051214;28;20480;-63
2022/11/14 07:01:05;;;;;;;7.17;2.73;;;;;;;19.15;60.86;100057.69;5070826;28;20508;-62
2022/11/14 07:03:30;;;;;;;3.50;2.60;;;;;;;19.17;60.80;100066.72;5061477;28;20410;-62
2022/11/14 07:06:00;;;;;;;5.00;2.93;;;;;;;19.16;61.01;100060.16;5049443;28;20416;-63
2022/11/14 07:08:25;;;;;;;3.80;2.77;;;;;;;19.12;61.04;100062.16;5035098;28;20275;-63
2022/11/14 07:10:50;;;;;;;3.40;2.37;;;;;;;19.15;60.92;100058.53;5050597;28;20541;-62
2022/11/14 07:13:16;;;;;;;4.17;2.60;;;;;;;19.20;60.71;100061.03;5048716;28;20199;-61
2022/11/14 07:15:51;;;;;;;4.00;2.60;;;;;;;19.17;60.85;100072.44;5058645;28;20176;-61
2022/11/14 07:18:17;;;;;;;3.10;1.83;;;;;;;19.16;60.83;100068.75;5050658;28;20179;-61
2022/11/14 07:20:42;;;;;;;3.90;2.63;;;;;;;19.20;60.76;100077.38;5067330;28;20821;-61
2022/11/14 07:23:07;;;;;;;4.70;2.83;;;;;;;19.18;60.79;100074.91;5052981;28;20589;-61
2022/11/14 07:25:33;;;;;;;4.23;2.70;;;;;;;19.14;60.97;100084.66;5046767;28;20653;-61
2022/11/14 07:27:58;;;;;;;4.03;2.63;;;;;;;19.17;60.77;100086.75;5053664;28;20180;-61
2022/11/14 07:30:24;;;;;;;4.23;2.30;;;;;;;19.16;60.84;100083.06;5049281;28;20168;-61
2022/11/14 07:32:58;;;;;;;3.37;2.50;;;;;;;19.14;60.83;100074.03;5063774;28;20202;-62
2022/11/14 07:35:24;;;;;;;5.80;2.33;;;;;;;19.13;60.93;100078.13;5048792;28;20203;-63
2022/11/14 07:37:49;;;;;;;3.30;2.23;;;;;;;19.17;60.83;100087.56;5051957;28;20824;-64
2022/11/14 07:40:15;;;;;;;4.30;2.33;;;;;;;19.20;60.75;100089.66;5035840;28;20172;-63
2022/11/14 07:42:41;;;;;;;4.97;2.40;;;;;;;19.16;60.93;100090.84;5059190;28;20187;-62
2022/11/14 07:45:07;;;;;;;4.03;2.50;;;;;;;19.20;60.80;100091.69;5064792;28;20186;-63
2022/11/14 07:47:32;;;;;;;4.23;2.70;;;;;;;19.16;60.79;100094.50;5057577;28;20180;-63
2022/11/14 07:49:58;;;;;;;3.80;2.20;;;;;;;19.17;60.81;100098.19;5059948;28;20428;-62
2022/11/14 07:52:23;;;;;;;3.80;2.33;;;;;;;19.15;60.81;100109.19;5040429;28;20219;-62
2022/11/14 07:54:49;;;;;;;6.90;2.83;;;;;;;19.18;60.67;100114.16;5056011;28;20179;-62
2022/11/14 07:57:14;;;;;;;4.03;2.40;;;;;;;19.17;60.83;100104.72;5061923;28;20228;-62
2022/11/14 07:59:39;;;;;;;4.40;2.60;;;;;;;19.16;60.71;100111.66;5062831;28;20174;-63
2022/11/14 08:02:05;;;;;;;5.20;2.60;;;;;;;19.19;60.71;100102.31;5076561;28;20167;-63
2022/11/14 08:04:30;;;;;;;4.40;2.53;;;;;;;19.19;60.76;100102.31;5060693;28;21193;-62
2022/11/14 08:06:56;;;;;;;4.17;2.27;;;;;;;19.20;60.78;100106.81;5089056;28;20179;-63
2022/11/14 08:09:22;;;;;;;3.70;2.37;;;;;;;19.17;60.84;100095.34;5076807;28;20167;-63
2022/11/14 08:11:47;;;;;;;3.70;2.17;;;;;;;19.19;60.50;100088.00;5074037;28;20199;-62
2022/11/14 08:14:13;;;;;;;3.43;2.17;;;;;;;19.20;60.66;100083.09;5067488;28;20191;-62
2022/11/14 08:16:39;;;;;;;4.10;2.20;;;;;;;19.17;60.77;100090.41;5084317;28;20178;-63
2022/11/14 08:19:04;;;;;;;4.87;2.70;;;;;;;19.16;60.85;100082.25;5069288;28;20190;-62
2022/11/14 08:21:30;;;;;;;3.00;2.20;;;;;;;19.19;60.83;100085.16;5080117;28;20188;-64
2022/11/14 08:23:55;;;;;;;2.80;1.93;;;;;;;19.15;60.83;100092.84;5083734;28;20189;-63
2022/11/14 08:26:21;;;;;;;3.70;2.07;;;;;;;19.23;60.80;100083.19;5092842;28;20178;-62
2022/11/14 08:28:46;;;;;;;3.00;1.90;;;;;;;19.19;60.75;100095.75;5073450;28;20576;-62
2022/11/14 08:31:12;;;;;;;3.33;2.30;;;;;;;19.20;60.74;100094.53;5080836;28;20191;-62
2022/11/14 08:33:38;;;;;;;3.23;2.17;;;;;;;19.21;60.68;100108.47;5080584;28;20603;-63
2022/11/14 08:36:04;;;;;;;3.60;2.40;;;;;;;19.16;60.81;100094.50;5075375;28;20182;-64
2022/11/14 08:38:30;;;;;;;4.63;2.60;;;;;;;19.18;60.78;100091.25;5064461;28;20622;-63
2022/11/14 08:40:59;;;;;;;3.57;2.20;;;;;;;19.20;60.52;100089.66;5081936;28;20423;-62
2022/11/14 08:43:25;;;;;;;3.57;2.40;;;;;;;19.22;60.36;100081.50;5066310;28;20196;-63
2022/11/14 08:45:50;;;;;;;3.27;1.90;;;;;;;19.19;60.75;100090.03;5090638;28;20805;-62
2022/11/14 08:48:16;;;;;;;3.33;2.30;;;;;;;19.18;60.79;100077.78;5073775;28;20178;-63
2022/11/14 08:50:41;;;;;;;3.40;2.37;;;;;;;19.19;60.84;100082.28;5059271;28;20179;-62
2022/11/14 08:53:07;;;;;;;2.60;1.80;;;;;;;19.18;60.83;100076.94;5076638;28;20253;-62
2022/11/14 08:55:32;;;;;;;3.00;2.03;;;;;;;19.17;60.77;100081.03;5072544;28;20653;-64
2022/11/14 08:57:57;;;;;;;4.47;2.83;;;;;;;19.17;60.78;100075.31;5075594;28;20178;-62
2022/11/14 09:00:23;;;;;;;3.40;2.60;;;;;;;19.17;60.70;100078.16;5089993;28;20570;-62
2022/11/14 09:02:48;;;;;;;5.23;2.83;;;;;;;19.16;60.84;100074.47;5090203;28;20238;-63
2022/11/14 09:05:14;;;;;;;3.13;2.20;;;;;;;19.15;60.74;100080.56;5082331;28;20244;-62
2022/11/14 09:07:39;;;;;;;4.20;2.67;;;;;;;19.17;60.94;100075.31;5073465;28;20189;-63
2022/11/14 09:10:05;;;;;;;3.60;2.10;;;;;;;19.15;60.96;100084.28;5074126;28;20179;-62
2022/11/14 09:12:31;;;;;;;2.90;2.10;;;;;;;19.18;60.90;100083.50;5059790;28;20741;-62
2022/11/14 09:14:56;;;;;;;3.77;2.43;;;;;;;19.17;60.78;100081.84;5082681;28;20515;-62
2022/11/14 09:17:22;;;;;;;4.07;2.70;;;;;;;19.19;60.90;100099.47;5076823;28;20182;-62
2022/11/14 09:19:47;;;;;;;3.00;2.40;;;;;;;19.19;60.74;100081.44;5055436;28;20175;-62
2022/11/14 09:22:13;;;;;;;3.93;2.50;;;;;;;19.21;60.53;100085.56;5057143;28;20183;-62
2022/11/14 09:24:38;;;;;;;3.60;2.17;;;;;;;19.17;60.60;100087.56;5061098;28;20182;-62
2022/11/14 09:27:04;;;;;;;4.43;2.20;;;;;;;19.15;60.84;100090.00;5084984;28;20214;-62
2022/11/14 09:29:29;;;;;;;5.03;2.20;;;;;;;19.17;60.64;100084.69;5061646;28;20703;-63
2022/11/14 09:31:55;;;;;;;4.23;2.50;;;;;;;19.14;60.84;100082.63;5081455;28;20198;-62
2022/11/14 09:34:21;;;;;;;2.97;2.20;;;;;;;19.17;60.79;100087.56;5067362;28;20189;-62
2022/11/14 09:36:46;;;;;;;4.67;2.13;;;;;;;19.17;60.81;100076.09;5079664;28;20425;-63
2022/11/14 09:39:12;;;;;;;3.13;2.10;;;;;;;19.16;60.74;100082.25;5075357;28;20187;-62
2022/11/14 09:41:56;;;;;;;2.90;1.90;;;;;;;19.17;60.83;100083.88;5083025;28;20183;-63
2022/11/14 09:44:43;;;;;;;3.50;2.43;;;;;;;19.15;60.90;100086.31;5073627;28;20637;-63
2022/11/14 09:47:11;;;;;;;3.57;2.30;;;;;;;19.19;60.97;100076.56;5053934;28;20417;-63
2022/11/14 09:49:38;;;;;;;3.10;1.60;;;;;;;19.21;60.63;100085.56;5046643;28;20420;-62
2022/11/14 09:52:26;;;;;;;2.90;2.07;;;;;;;19.17;60.84;100081.84;5069962;28;20472;-63
2022/11/14 09:54:56;;;;;;;3.47;1.90;;;;;;;19.13;61.06;100080.16;5074301;28;20845;-62
2022/11/14 09:57:21;;;;;;;2.70;1.80;;;;;;;19.17;60.81;100067.53;5059074;28;20447;-63
2022/11/14 09:59:47;;;;;;;2.87;2.13;;;;;;;19.15;60.82;100075.69;5063946;28;20437;-62
2022/11/14 10:02:15;;;;;;;3.03;1.93;;;;;;;19.20;60.99;100071.66;5070948;28;20182;-63
2022/11/14 10:04:50;;;;;;;3.83;2.03;;;;;;;19.18;60.82;100074.91;5071068;28;20210;-62
2022/11/14 10:07:39;;;;;;;2.73;1.97;;;;;;;19.18;60.72;100069.19;5077266;28;20427;-62
2022/11/14 10:10:33;;;;;;;3.20;2.00;;;;;;;19.14;60.91;100071.19;5079060;28;20428;-63
2022/11/14 10:13:13;;;;;;;2.87;1.80;;;;;;;19.14;60.52;100076.91;5065915;28;20567;-63
2022/11/14 10:15:59;;;;;;;3.50;2.30;;;;;;;19.14;60.74;100078.94;5078778;28;20547;-62
2022/11/14 10:18:43;;;;;;;2.40;1.67;;;;;;;19.14;60.93;100073.22;5065707;28;20443;-63
2022/11/14 10:21:53;;;;;;;4.20;2.47;;;;;;;19.17;60.81;100066.72;5072279;28;20417;-62
2022/11/14 10:24:22;;;;;;;2.97;2.23;;;;;;;19.15;60.94;100069.13;5027359;28;20846;-62
2022/11/14 10:27:09;;;;;;;2.50;1.80;;;;;;;19.17;60.83;100075.31;5081900;28;20416;-63
2022/11/14 10:29:53;;;;;;;3.13;1.90;;;;;;;19.17;60.88;100063.84;5073073;28;20938;-62
2022/11/14 10:32:49;;;;;;;3.00;2.20;;;;;;;19.14;60.93;100065.47;5086007;28;20459;-62
2022/11/14 10:35:20;;;;;;;3.53;2.30;;;;;;;19.16;60.42;100070.81;5053479;28;20444;-62
2022/11/14 10:38:10;;;;;;;3.37;2.27;;;;;;;19.16;60.84;100063.03;5083026;28;20768;-63
2022/11/14 10:40:40;;;;;;;2.90;2.20;;;;;;;19.15;60.93;100069.97;5085318;28;20453;-62
2022/11/14 10:43:31;;;;;;;3.63;2.10;;;;;;;19.20;60.64;100080.22;5054754;28;20449;-62
2022/11/14 10:46:01;;;;;;;2.90;2.00;;;;;;;19.15;60.83;100069.13;5050173;28;20547;-62
2022/11/14 10:48:30;;;;;;;3.40;2.23;;;;;;;19.17;60.73;100064.66;5077728;28;20477;-63
2022/11/14 10:51:04;;;;;;;4.37;2.17;;;;;;;19.17;60.88;100063.84;5078802;28;20510;-63
2022/11/14 10:53:48;;;;;;;2.80;1.93;;;;;;;19.16;60.97;100065.88;5079894;28;20495;-63
2022/11/14 10:56:13;;;;;;;3.40;2.30;;;;;;;19.14;61.00;100062.59;5079341;28;20420;-63
2022/11/14 10:58:40;;;;;;;3.17;2.37;;;;;;;19.16;60.92;100054.44;5076627;28;20771;-62
2022/11/14 11:01:31;;;;;;;3.73;2.20;;;;;;;19.16;60.91;100054.44;5076344;28;20265;-63
2022/11/14 11:03:56;;;;;;;3.17;2.30;;;;;;;19.19;60.67;100062.25;5070907;28;20449;-63
2022/11/14 11:06:25;;;;;;;3.80;2.13;;;;;;;19.17;60.94;100049.56;5079594;28;20426;-63
2022/11/14 11:11:38;;;;;;;3.23;2.10;;;;;;;19.18;60.79;100051.19;5076336;28;21044;-62
2022/11/14 11:14:03;;;;;;;2.57;1.70;;;;;;;19.20;60.82;100046.72;5081243;28;20905;-62
2022/11/14 11:16:29;;;;;;;3.63;2.37;;;;;;;19.18;60.71;100051.19;5064959;28;20436;-62
2022/11/14 11:19:13;;;;;;;3.00;2.07;;;;;;;19.16;61.00;100054.44;5079806;28;20617;-63
2022/11/14 11:21:47;;;;;;;3.67;2.10;;;;;;;19.16;60.80;100034.41;5066469;28;20179;-63
2022/11/14 11:24:13;;;;;;;3.50;2.00;;;;;;;19.18;60.97;100040.59;5071141;28;20424;-62
2022/11/14 11:26:38;;;;;;;2.43;1.83;;;;;;;19.20;60.74;100043.84;5045680;28;20447;-62
2022/11/14 11:29:05;;;;;;;2.47;1.80;;;;;;;19.19;60.61;100036.50;5082533;28;20186;-62